Time;durP1;ratioP1;P1;durP2;ratioP2;P2;SDS_P1;SDS_P2;PMS_P1;PMS_P2;Temp;Humidity;BMP_temperature;BMP_pressure;BME280_temperature;BME280_humidity;BME280_pressure;Samples;Min_cycle;Max_cycle;Signal;HPM_P1;HPM_P2
2023/03/25 00:01:31;;;;;;;;;1.33;0.00;;;;;11.84;58.22;100539.25;5053499;28;46467;-68
2023/03/25 00:03:59;;;;;;;;;1.00;0.00;;;;;11.77;58.67;100528.75;5035655;28;45364;-66
2023/03/25 00:06:26;;;;;;;;;3.67;1.00;;;;;11.79;58.53;100546.28;5050480;28;45843;-70
2023/03/25 00:08:53;;;;;;;;;0.00;0.00;;;;;11.79;58.40;100548.91;5038208;28;46026;-70
2023/03/25 00:11:18;;;;;;;;;3.00;0.00;;;;;11.74;58.35;100534.03;5048857;28;46257;-67
2023/03/25 00:13:44;;;;;;;;;2.00;0.00;;;;;11.78;58.27;100547.13;5057025;28;45937;-67
2023/03/25 00:16:09;;;;;;;;;4.25;1.25;;;;;11.78;58.99;100556.78;5061318;28;45542;-68
2023/03/25 00:18:36;;;;;;;;;1.33;0.00;;;;;11.63;58.61;100536.75;5045023;28;45462;-66
2023/03/25 00:21:04;;;;;;;;;1.00;1.00;;;;;11.82;59.11;100556.75;5056757;28;45476;-74
2023/03/25 00:23:31;;;;;;;;;0.33;0.33;;;;;11.75;58.96;100549.78;5057759;28;45371;-64
2023/03/25 00:26:00;;;;;;;;;3.50;0.75;;;;;11.78;59.22;100552.38;5060294;28;45300;-71
2023/03/25 00:28:32;;;;;;;;;3.75;2.00;;;;;11.77;59.29;100552.38;5062374;28;45499;-71
2023/03/25 00:31:07;;;;;;;;;1.00;1.00;;;;;11.81;59.23;100552.34;5062567;28;45490;-68
2023/03/25 00:33:34;;;;;;;;;3.75;1.00;;;;;11.83;59.19;100568.97;5049053;28;45390;-65
2023/03/25 00:36:00;;;;;;;;;2.00;1.25;;;;;11.80;59.57;100555.00;5060951;28;45261;-65
2023/03/25 00:38:33;;;;;;;;;2.00;1.50;;;;;11.75;59.79;100551.53;5059095;28;45371;-71
2023/03/25 00:41:10;;;;;;;;;1.75;0.75;;;;;11.54;59.61;100518.44;5039314;28;45446;-68
2023/03/25 00:43:36;;;;;;;;;1.00;1.00;;;;;11.60;59.98;100537.63;5044118;28;45431;-64
2023/03/25 00:46:02;;;;;;;;;3.25;1.75;;;;;11.58;59.92;100547.25;5049114;28;45442;-70
2023/03/25 00:48:28;;;;;;;;;2.00;1.00;;;;;11.61;60.07;100570.84;5049899;28;45285;-69
2023/03/25 00:50:54;;;;;;;;;1.25;1.00;;;;;11.60;60.46;100562.97;5055851;28;46130;-64
2023/03/25 00:53:19;;;;;;;;;1.75;0.00;;;;;11.53;60.94;100556.00;5037958;28;45699;-67
2023/03/25 00:55:45;;;;;;;;;5.25;2.75;;;;;11.48;60.91;100534.19;5039975;28;45466;-64
2023/03/25 00:58:11;;;;;;;;;1.00;1.00;;;;;11.54;61.52;100563.03;5057725;28;45346;-70
2023/03/25 01:00:36;;;;;;;;;1.00;0.75;;;;;11.50;61.23;100542.91;5055643;28;45449;-65
2023/03/25 01:03:02;;;;;;;;;3.00;0.50;;;;;11.56;61.17;100549.00;5042884;28;45877;-65
2023/03/25 01:05:29;;;;;;;;;3.50;1.25;;;;;11.61;61.51;100554.25;5038475;28;45544;-65
2023/03/25 01:07:54;;;;;;;;;4.00;2.00;;;;;11.57;61.41;100556.00;5047410;28;45442;-65
2023/03/25 01:10:20;;;;;;;;;1.50;1.00;;;;;11.49;61.39;100535.94;5059038;28;46373;-63
2023/03/25 01:12:46;;;;;;;;;1.75;0.75;;;;;11.56;61.97;100551.63;5046003;28;45416;-69
2023/03/25 01:15:11;;;;;;;;;3.00;2.25;;;;;11.62;61.49;100559.47;5044523;28;45521;-67
2023/03/25 01:17:37;;;;;;;;;1.00;1.00;;;;;11.55;62.22;100543.75;5047379;28;45443;-63
2023/03/25 01:20:05;;;;;;;;;4.33;1.00;;;;;11.66;61.73;100555.94;5052869;28;45429;-65
2023/03/25 01:22:31;;;;;;;;;2.00;1.00;;;;;11.63;61.93;100555.09;5040366;28;45382;-66
2023/03/25 01:24:56;;;;;;;;;2.75;2.00;;;;;11.64;61.79;100564.72;5040401;28;45472;-72
2023/03/25 01:27:23;;;;;;;;;2.75;1.00;;;;;11.59;62.50;100574.34;5041786;28;45462;-65
2023/03/25 01:29:49;;;;;;;;;1.00;1.00;;;;;11.60;62.30;100561.25;5055068;28;46480;-69
2023/03/25 01:32:15;;;;;;;;;2.25;0.50;;;;;11.56;62.55;100553.41;5054896;28;45324;-73
2023/03/25 01:34:41;;;;;;;;;2.00;1.25;;;;;11.55;62.59;100541.13;5055440;28;45237;-72
2023/03/25 01:37:08;;;;;;;;;4.33;0.00;;;;;11.57;62.99;100553.38;5055072;28;45490;-68
2023/03/25 01:39:35;;;;;;;;;1.67;1.67;;;;;11.52;63.56;100560.38;5020228;28;46268;-70
2023/03/25 01:42:01;;;;;;;;;3.25;1.00;;;;;11.46;63.84;100549.94;5054989;28;45473;-71
2023/03/25 01:44:28;;;;;;;;;2.50;2.00;;;;;11.42;63.78;100538.59;5055394;28;45823;-71
2023/03/25 01:46:55;;;;;;;;;1.00;1.00;;;;;11.31;64.40;100540.38;5042973;28;45498;-68
2023/03/25 01:49:28;;;;;;;;;3.33;1.00;;;;;11.40;64.23;100544.72;5025486;28;47453;-71
2023/03/25 01:52:03;;;;;;;;;1.00;1.00;;;;;11.38;64.07;100535.97;5042661;28;45489;-69
2023/03/25 01:54:28;;;;;;;;;2.00;1.00;;;;;11.36;64.47;100530.72;5054526;28;45784;-64
2023/03/25 01:56:54;;;;;;;;;5.75;1.75;;;;;11.41;64.34;100523.75;5055557;28;45344;-63
2023/03/25 01:59:24;;;;;;;;;2.00;1.00;;;;;11.44;64.07;100528.09;5048332;28;46543;-63
2023/03/25 02:01:52;;;;;;;;;2.00;0.00;;;;;11.47;64.17;100520.22;5049561;28;45543;-62
2023/03/25 02:04:33;;;;;;;;;1.00;0.00;;;;;11.46;64.24;100513.22;5020453;28;45533;-66
2023/03/25 02:06:59;;;;;;;;;1.25;1.25;;;;;11.43;64.24;100506.22;5038816;28;45390;-62
2023/03/25 02:09:25;;;;;;;;;3.00;1.33;;;;;11.57;64.44;100527.13;5057268;28;45475;-71
2023/03/25 02:11:54;;;;;;;;;2.50;2.00;;;;;11.44;64.40;100510.59;5026327;28;45491;-65
2023/03/25 02:14:24;;;;;;;;;1.50;1.00;;;;;11.53;64.09;100530.69;5043345;28;45550;-66
2023/03/25 02:17:28;;;;;;;;;1.00;1.00;;;;;11.57;64.00;100531.53;5041680;28;45970;-68
2023/03/25 02:20:15;;;;;;;;;1.00;0.75;;;;;11.54;64.43;100521.06;5037468;28;45530;-65
2023/03/25 02:23:06;;;;;;;;;6.25;1.00;;;;;11.52;64.72;100521.03;5045203;28;45536;-72
2023/03/25 02:25:55;;;;;;;;;3.00;1.50;;;;;11.52;64.39;100510.56;5050859;28;45446;-67
2023/03/25 02:28:34;;;;;;;;;3.00;2.00;;;;;11.52;64.42;100509.69;4985145;28;45896;-66
2023/03/25 02:31:36;;;;;;;;;1.00;1.00;;;;;11.52;64.99;100513.19;5039914;28;47883;-66
2023/03/25 02:34:45;;;;;;;;;3.50;1.75;;;;;11.51;64.90;100503.59;5045724;28;45385;-69
2023/03/25 02:38:05;;;;;;;;;2.50;2.00;;;;;11.48;64.61;100508.81;5052635;28;45713;-66
2023/03/25 02:40:43;;;;;;;;;3.50;2.00;;;;;11.33;65.37;100503.66;4955271;28;45535;-71
2023/03/25 02:43:09;;;;;;;;;3.25;1.00;;;;;11.32;65.37;100501.91;5043532;28;45609;-63
2023/03/25 02:45:42;;;;;;;;;2.50;1.00;;;;;11.35;65.79;100499.28;5055528;28;45488;-65
2023/03/25 02:48:14;;;;;;;;;1.75;0.00;;;;;11.37;65.53;100508.03;5035707;28;45476;-63
2023/03/25 02:50:51;;;;;;;;;2.00;1.00;;;;;11.31;65.16;100476.59;5053887;28;45688;-66
2023/03/25 02:53:32;;;;;;;;;2.00;1.00;;;;;11.46;65.25;100495.75;5053820;28;46300;-63
2023/03/25 02:56:07;;;;;;;;;3.25;1.00;;;;;11.44;65.66;100494.88;5056291;28;45454;-69
2023/03/25 02:58:34;;;;;;;;;4.75;1.00;;;;;11.42;65.36;100495.75;5058326;28;45308;-66
2023/03/25 03:01:00;;;;;;;;;1.25;0.25;;;;;11.48;65.15;100505.34;5033891;28;45597;-63
2023/03/25 03:03:27;;;;;;;;;2.00;1.00;;;;;11.40;65.60;100498.38;5033662;28;46076;-69
2023/03/25 03:05:57;;;;;;;;;2.50;1.00;;;;;11.39;65.79;100487.88;5049823;28;45454;-68
2023/03/25 03:08:35;;;;;;;;;3.50;1.00;;;;;11.49;65.40;100496.59;5053818;28;45311;-69
2023/03/25 03:11:23;;;;;;;;;2.00;1.00;;;;;11.36;65.93;100483.53;5053907;28;45505;-67
2023/03/25 03:14:12;;;;;;;;;0.75;0.75;;;;;11.40;66.05;100495.75;5035796;28;45733;-66
2023/03/25 03:16:57;;;;;;;;;4.50;1.75;;;;;11.40;65.70;100502.75;5053311;28;45541;-64
2023/03/25 03:19:45;;;;;;;;;3.25;2.00;;;;;11.20;66.14;100482.75;5051835;28;45395;-63
2023/03/25 03:22:24;;;;;;;;;2.50;1.00;;;;;11.26;66.26;100489.72;5053709;28;45565;-65
2023/03/25 03:24:55;;;;;;;;;3.00;2.00;;;;;11.36;66.06;100503.66;5052775;28;45377;-69
2023/03/25 03:27:33;;;;;;;;;1.00;1.00;;;;;11.36;66.04;100508.88;5051397;28;45473;-66
2023/03/25 03:33:24;;;;;;;;;1.75;1.00;;;;;11.27;66.83;100508.94;5057830;28;45456;-64
2023/03/25 03:36:09;;;;;;;;;1.00;1.00;;;;;11.25;66.78;100511.56;5055909;28;46553;-66
2023/03/25 03:38:44;;;;;;;;;1.50;1.00;;;;;11.27;66.34;100509.81;5054901;28;45447;-67
2023/03/25 03:41:14;;;;;;;;;4.50;1.50;;;;;11.26;66.50;100497.56;5053272;28;45787;-66
2023/03/25 03:43:47;;;;;;;;;3.00;1.00;;;;;11.23;66.31;100502.84;5056792;28;45460;-71
2023/03/25 03:46:21;;;;;;;;;2.75;1.00;;;;;11.32;66.33;100515.03;5055273;28;47691;-67
2023/03/25 03:48:54;;;;;;;;;2.33;1.00;;;;;11.29;66.27;100515.03;5052943;28;45315;-68
2023/03/25 03:51:28;;;;;;;;;4.75;1.00;;;;;11.32;66.78;100512.41;5055206;28;45343;-67
2023/03/25 03:54:05;;;;;;;;;1.75;1.75;;;;;11.27;66.43;100509.81;5056389;28;45455;-63
2023/03/25 03:56:40;;;;;;;;;4.50;1.00;;;;;11.17;66.11;100495.84;5057133;28;45429;-67
2023/03/25 03:59:15;;;;;;;;;0.50;0.50;;;;;11.25;66.26;100501.97;5039072;28;45466;-63
2023/03/25 04:01:45;;;;;;;;;3.25;1.50;;;;;11.18;66.02;100488.91;5057823;28;45566;-70
2023/03/25 04:04:25;;;;;;;;;0.00;0.00;;;;;11.19;65.49;100514.22;5036288;28;45346;-69
2023/03/25 04:07:00;;;;;;;;;3.25;2.00;;;;;11.19;65.78;100501.09;5052614;28;45465;-64
2023/03/25 04:09:33;;;;;;;;;2.75;1.00;;;;;11.19;65.87;100516.84;5034232;28;45394;-67
2023/03/25 04:12:05;;;;;;;;;1.00;0.75;;;;;11.11;65.59;100511.63;5035296;28;45312;-65
2023/03/25 04:14:31;;;;;;;;;0.00;0.00;;;;;11.15;65.56;100505.50;5053401;28;45380;-70
2023/03/25 04:16:58;;;;;;;;;1.00;1.00;;;;;11.24;65.25;100534.28;5053039;28;45443;-70
2023/03/25 04:19:25;;;;;;;;;2.67;1.00;;;;;11.25;65.13;100538.66;5038368;28;45472;-67
2023/03/25 04:21:50;;;;;;;;;3.75;0.50;;;;;11.18;64.89;100515.09;5035082;28;45580;-71
2023/03/25 04:24:18;;;;;;;;;1.00;0.67;;;;;11.15;65.37;100513.38;5031735;28;45621;-68
2023/03/25 04:26:46;;;;;;;;;1.00;0.00;;;;;11.28;64.76;100535.16;5038774;28;46129;-71
2023/03/25 04:29:12;;;;;;;;;2.75;1.00;;;;;11.29;64.29;100521.16;5052904;28;45462;-70
2023/03/25 04:31:44;;;;;;;;;1.75;1.00;;;;;11.34;64.45;100529.91;5056027;28;45544;-64
2023/03/25 04:34:12;;;;;;;;;1.67;1.00;;;;;11.28;64.25;100534.28;5035021;28;45610;-73
2023/03/25 04:36:40;;;;;;;;;2.50;0.50;;;;;11.34;64.08;100537.75;5052836;28;45459;-63
2023/03/25 04:39:06;;;;;;;;;2.00;0.75;;;;;11.31;64.30;100540.38;5052416;28;45577;-66
2023/03/25 04:41:32;;;;;;;;;2.00;1.00;;;;;11.37;63.85;100553.47;5055191;28;45411;-64
2023/03/25 04:43:58;;;;;;;;;2.00;0.50;;;;;11.36;63.99;100554.34;5038896;28;45415;-68
2023/03/25 04:46:24;;;;;;;;;0.33;0.33;;;;;11.34;64.28;100561.34;5056203;28;46585;-68
2023/03/25 04:48:52;;;;;;;;;1.67;1.00;;;;;11.32;64.14;100551.72;5046591;28;45557;-70
2023/03/25 04:51:18;;;;;;;;;2.00;0.00;;;;;11.30;63.93;100554.38;5060227;28;45434;-72
2023/03/25 04:53:44;;;;;;;;;0.50;0.25;;;;;11.26;64.31;100547.38;5057840;28;45525;-73
2023/03/25 04:56:15;;;;;;;;;0.00;0.00;;;;;11.28;64.24;100560.50;5055976;28;45311;-71
2023/03/25 04:58:45;;;;;;;;;1.67;0.00;;;;;11.25;64.15;100566.63;5055828;28;45482;-68
2023/03/25 05:01:32;;;;;;;;;2.00;0.00;;;;;11.21;64.40;100557.91;5055720;28;45518;-72
2023/03/25 05:04:06;;;;;;;;;0.75;0.75;;;;;11.34;64.18;100560.47;5057791;28;45467;-72
2023/03/25 05:06:40;;;;;;;;;0.00;0.00;;;;;11.36;63.65;100570.06;5059686;28;45481;-74
2023/03/25 05:09:10;;;;;;;;;0.25;0.00;;;;;11.38;63.67;100572.69;5056032;28;45426;-65
2023/03/25 05:11:38;;;;;;;;;0.33;0.00;;;;;11.33;63.46;100562.22;5056201;28;45465;-63
2023/03/25 05:14:07;;;;;;;;;0.33;0.33;;;;;11.25;63.97;100557.00;5041903;28;45507;-69
2023/03/25 05:16:33;;;;;;;;;1.00;0.25;;;;;11.29;63.43;100570.09;5058017;28;47052;-70
2023/03/25 05:18:59;;;;;;;;;1.33;0.00;;;;;11.02;63.29;100523.00;5059785;28;45279;-74
2023/03/25 05:21:26;;;;;;;;;1.67;0.00;;;;;11.33;63.53;100570.09;5060209;28;45431;-66
2023/03/25 05:23:51;;;;;;;;;1.67;1.00;;;;;11.28;63.09;100569.25;5060193;28;45273;-66
2023/03/25 05:26:18;;;;;;;;;1.00;0.33;;;;;11.35;62.60;100576.19;5040307;28;46392;-67
2023/03/25 05:28:43;;;;;;;;;5.00;1.25;;;;;11.28;63.07;100561.38;5037215;28;45585;-70
2023/03/25 05:31:09;;;;;;;;;1.50;0.75;;;;;11.39;62.49;100584.91;5055200;28;45782;-67
2023/03/25 05:33:41;;;;;;;;;3.33;1.00;;;;;11.40;61.67;100574.44;5055731;28;45474;-67
2023/03/25 05:36:15;;;;;;;;;1.00;1.00;;;;;11.48;62.24;100584.00;5054032;28;47249;-64
2023/03/25 05:38:42;;;;;;;;;1.00;0.00;;;;;11.51;61.85;100598.00;5055861;28;45401;-68
2023/03/25 05:41:10;;;;;;;;;1.00;1.00;;;;;11.51;61.22;100600.63;5041397;28;45352;-63
2023/03/25 05:43:37;;;;;;;;;2.33;0.00;;;;;11.56;61.66;100608.47;5059656;28;45371;-68
2023/03/25 05:46:04;;;;;;;;;4.25;1.00;;;;;11.55;61.24;100604.09;5059791;28;45420;-72
2023/03/25 05:48:31;;;;;;;;;0.50;0.00;;;;;11.60;60.91;100611.09;5059273;28;45442;-72
2023/03/25 05:50:59;;;;;;;;;0.00;0.00;;;;;11.63;61.24;100613.69;5058959;28;45622;-69
2023/03/25 05:53:25;;;;;;;;;0.25;0.25;;;;;11.57;60.81;100623.31;5054807;28;45645;-69
2023/03/25 05:55:50;;;;;;;;;2.00;0.75;;;;;11.59;61.04;100626.81;5036808;28;45491;-63
2023/03/25 05:58:18;;;;;;;;;2.00;0.00;;;;;11.54;61.55;100618.97;5055004;28;45656;-64
2023/03/25 06:00:45;;;;;;;;;1.00;1.00;;;;;11.53;61.02;100617.25;5043133;28;45442;-71
2023/03/25 06:03:11;;;;;;;;;0.33;0.00;;;;;11.58;61.25;100623.34;5059490;28;45307;-73
2023/03/25 06:05:40;;;;;;;;;2.00;0.00;;;;;11.50;60.80;100611.13;5058718;28;46492;-64
2023/03/25 06:08:05;;;;;;;;;1.00;0.00;;;;;11.60;60.98;100634.69;5041060;28;45301;-64
2023/03/25 06:10:32;;;;;;;;;3.00;0.33;;;;;11.60;60.75;100625.94;5041020;28;45385;-67
2023/03/25 06:12:57;;;;;;;;;0.00;0.00;;;;;11.64;60.87;100635.53;5059376;28;45161;-74
2023/03/25 06:15:32;;;;;;;;;2.00;0.00;;;;;11.58;60.11;100636.44;5055758;28;45635;-67
2023/03/25 06:17:59;;;;;;;;;3.00;1.00;;;;;11.56;60.61;100637.34;5054789;28;45422;-71
2023/03/25 06:20:25;;;;;;;;;4.00;0.00;;;;;11.59;60.75;100651.28;5054968;28;45759;-68
2023/03/25 06:22:51;;;;;;;;;0.00;0.00;;;;;11.57;60.84;100649.56;5055637;28;45457;-69
2023/03/25 06:25:19;;;;;;;;;0.75;0.75;;;;;11.54;60.96;100650.44;5058828;28;46096;-70
2023/03/25 06:27:48;;;;;;;;;0.25;0.00;;;;;11.58;60.77;100648.66;5040439;28;45437;-69
2023/03/25 06:30:19;;;;;;;;;2.50;0.00;;;;;11.63;60.83;100647.78;5059215;28;45445;-69
2023/03/25 06:32:49;;;;;;;;;0.00;0.00;;;;;11.76;60.15;100669.59;5054939;28;45453;-66
2023/03/25 06:35:18;;;;;;;;;1.00;0.00;;;;;11.77;60.06;100665.22;5023312;28;48048;-69
2023/03/25 06:37:45;;;;;;;;;0.00;0.00;;;;;11.90;60.02;100680.06;5055569;28;45646;-72
2023/03/25 06:40:12;;;;;;;;;2.00;1.00;;;;;11.99;59.62;100677.41;5054412;28;45651;-67
2023/03/25 06:42:38;;;;;;;;;0.33;0.33;;;;;11.96;59.58;100681.78;5052898;28;45438;-66
2023/03/25 06:45:03;;;;;;;;;2.00;0.00;;;;;11.96;59.88;100664.31;5035521;28;47004;-65
2023/03/25 06:47:29;;;;;;;;;0.33;0.33;;;;;12.29;59.10;100686.00;5054590;28;45446;-69
2023/03/25 06:49:55;;;;;;;;;0.33;0.00;;;;;12.45;58.62;100692.03;5054904;28;45412;-65
2023/03/25 06:52:20;;;;;;;;;2.67;0.33;;;;;12.47;58.91;100704.28;5056228;28;45500;-69
2023/03/25 06:54:46;;;;;;;;;4.33;0.33;;;;;12.27;58.32;100667.63;5055756;28;45343;-63
2023/03/25 06:57:12;;;;;;;;;0.00;0.00;;;;;12.36;58.31;100694.72;5036352;28;45454;-69
2023/03/25 06:59:37;;;;;;;;;2.00;0.33;;;;;12.27;58.28;100693.91;5053257;28;45446;-66
2023/03/25 07:02:03;;;;;;;;;0.00;0.00;;;;;12.19;58.68;100663.28;5036532;28;45579;-72
2023/03/25 07:04:28;;;;;;;;;2.00;0.00;;;;;12.27;58.48;100686.00;5054917;28;46414;-75
2023/03/25 07:06:54;;;;;;;;;1.33;1.00;;;;;12.39;58.49;100698.19;5056235;28;45555;-64
2023/03/25 07:09:20;;;;;;;;;2.00;1.00;;;;;12.40;58.39;100675.44;5056323;28;45479;-75
2023/03/25 07:11:45;;;;;;;;;1.33;0.00;;;;;12.39;57.87;100690.31;5055539;28;45410;-68
2023/03/25 07:14:11;;;;;;;;;3.00;1.00;;;;;12.60;57.52;100696.31;5054381;28;45790;-67
2023/03/25 07:16:36;;;;;;;;;3.33;1.00;;;;;12.62;57.42;100691.91;5036565;28;45480;-72
2023/03/25 07:19:02;;;;;;;;;1.00;0.00;;;;;12.71;57.15;100705.00;5055338;28;45644;-68
2023/03/25 07:21:28;;;;;;;;;0.00;0.00;;;;;12.76;57.52;100694.44;5055038;28;45470;-75
2023/03/25 07:23:54;;;;;;;;;1.67;1.00;;;;;12.71;57.06;100697.97;5054438;28;45537;-71
2023/03/25 07:26:20;;;;;;;;;1.00;1.00;;;;;12.66;57.42;100701.53;5055826;28;45876;-75
2023/03/25 07:28:46;;;;;;;;;2.33;0.00;;;;;12.66;57.08;100697.13;5054728;28;45847;-77
2023/03/25 07:31:15;;;;;;;;;0.00;0.00;;;;;12.65;56.85;100690.16;5054272;28;45676;-71
2023/03/25 07:33:40;;;;;;;;;1.67;0.00;;;;;12.70;57.39;100690.97;5053634;28;45907;-67
2023/03/25 07:36:09;;;;;;;;;2.00;2.00;;;;;12.83;56.08;100699.63;5055703;28;45473;-71
2023/03/25 07:38:35;;;;;;;;;1.67;0.00;;;;;12.91;56.38;100707.47;5054959;28;45802;-75
2023/03/25 07:41:11;;;;;;;;;5.00;1.00;;;;;12.97;55.13;100717.94;5054812;28;45425;-72
2023/03/25 07:43:38;;;;;;;;;2.00;0.33;;;;;12.91;55.66;100691.72;5058691;28;46286;-72
2023/03/25 07:46:04;;;;;;;;;0.33;0.00;;;;;13.06;55.24;100717.00;5057384;28;45636;-72
2023/03/25 07:48:30;;;;;;;;;1.33;1.00;;;;;13.01;55.15;100710.91;5052515;28;45546;-65
2023/03/25 07:50:56;;;;;;;;;2.00;0.00;;;;;12.97;54.73;100702.16;5055160;28;45593;-73
2023/03/25 07:53:21;;;;;;;;;1.67;0.00;;;;;13.03;54.91;100730.16;5035332;28;46855;-64
2023/03/25 07:55:50;;;;;;;;;1.67;1.67;;;;;13.04;55.07;100719.63;5053176;28;45521;-63
2023/03/25 07:58:17;;;;;;;;;1.33;1.33;;;;;13.07;54.78;100738.00;5053152;28;45634;-66
2023/03/25 08:00:43;;;;;;;;;2.33;1.00;;;;;13.17;54.79;100741.44;5040555;28;46281;-65
2023/03/25 08:03:11;;;;;;;;;0.33;0.33;;;;;13.10;54.59;100716.94;5057373;28;45454;-67
2023/03/25 08:05:36;;;;;;;;;4.00;1.00;;;;;13.39;53.95;100734.25;5055069;28;45526;-64
2023/03/25 08:08:04;;;;;;;;;1.67;0.00;;;;;13.45;53.74;100743.84;5053385;28;45450;-70
2023/03/25 08:10:30;;;;;;;;;2.00;0.67;;;;;13.40;53.88;100741.25;5054228;28;45745;-64
2023/03/25 08:12:56;;;;;;;;;1.00;1.00;;;;;13.51;52.86;100746.41;5056651;28;46120;-68
2023/03/25 08:15:25;;;;;;;;;3.00;1.00;;;;;13.46;52.67;100729.81;5053405;28;45347;-65
2023/03/25 08:17:51;;;;;;;;;2.33;0.00;;;;;13.44;52.58;100737.72;5057892;28;45533;-62
2023/03/25 08:20:16;;;;;;;;;2.00;1.00;;;;;13.47;52.01;100740.31;5059128;28;45465;-74
2023/03/25 08:22:44;;;;;;;;;3.00;0.67;;;;;13.51;52.23;100742.03;5056639;28;46335;-70
2023/03/25 08:25:09;;;;;;;;;1.00;0.00;;;;;13.52;51.80;100743.75;5060263;28;45494;-65
2023/03/25 08:27:35;;;;;;;;;3.67;0.00;;;;;13.72;51.83;100761.13;5058990;28;45542;-62
2023/03/25 08:30:01;;;;;;;;;2.00;1.00;;;;;13.71;51.49;100748.84;5056345;28;45610;-69
2023/03/25 08:32:28;;;;;;;;;1.00;0.00;;;;;13.95;51.35;100763.47;5058700;28;45501;-68
2023/03/25 08:34:54;;;;;;;;;3.00;0.67;;;;;14.10;50.97;100757.19;5060491;28;45439;-64
2023/03/25 08:37:21;;;;;;;;;2.33;0.00;;;;;14.03;51.07;100734.44;5060631;28;45465;-64
2023/03/25 08:39:49;;;;;;;;;0.00;0.00;;;;;14.18;51.06;100757.94;5059972;28;45425;-70
2023/03/25 08:42:16;;;;;;;;;3.00;1.00;;;;;14.09;51.38;100768.59;5037496;28;45531;-67
2023/03/25 08:44:41;;;;;;;;;4.00;1.00;;;;;14.12;51.29;100750.16;5057926;28;45481;-66
2023/03/25 08:47:07;;;;;;;;;1.33;1.00;;;;;13.95;51.67;100756.47;5057428;28;45297;-70
2023/03/25 08:49:33;;;;;;;;;0.00;0.00;;;;;13.84;51.18;100761.00;5038027;28;45429;-70
2023/03/25 08:52:00;;;;;;;;;1.67;1.00;;;;;13.69;51.41;100755.88;5056248;28;46191;-70
2023/03/25 08:54:27;;;;;;;;;0.33;0.33;;;;;13.55;51.55;100743.75;5056304;28;45619;-73
2023/03/25 08:56:53;;;;;;;;;1.00;0.00;;;;;13.63;51.92;100767.34;5040754;28;45553;-65
2023/03/25 08:59:19;;;;;;;;;1.67;1.00;;;;;13.38;51.94;100731.63;5051582;28;45425;-72
2023/03/25 09:01:45;;;;;;;;;1.00;1.00;;;;;13.91;51.07;100769.69;5046270;28;45439;-71
2023/03/25 09:04:11;;;;;;;;;4.00;1.00;;;;;14.03;51.12;100769.56;5037686;28;45738;-74
2023/03/25 09:06:38;;;;;;;;;3.00;1.00;;;;;14.10;50.74;100749.28;5038409;28;45417;-64
2023/03/25 09:09:04;;;;;;;;;4.00;0.00;;;;;14.25;50.61;100750.84;5056538;28;45545;-66
2023/03/25 09:11:34;;;;;;;;;0.00;0.00;;;;;14.50;50.56;100769.81;5058089;28;45359;-63
2023/03/25 09:14:03;;;;;;;;;1.00;1.00;;;;;14.57;49.15;100748.69;5055998;28;45718;-72
2023/03/25 09:16:30;;;;;;;;;1.00;1.00;;;;;14.59;49.39;100746.91;5056800;28;45489;-72
2023/03/25 09:18:56;;;;;;;;;1.67;1.00;;;;;14.66;48.98;100747.66;5056028;28;45551;-70
2023/03/25 09:21:21;;;;;;;;;1.00;1.00;;;;;14.81;48.37;100752.72;5059473;28;45363;-65
2023/03/25 09:23:47;;;;;;;;;3.33;1.00;;;;;14.93;48.60;100763.97;5059007;28;46502;-72
2023/03/25 09:26:12;;;;;;;;;1.33;0.00;;;;;15.08;49.00;100765.50;5056127;28;45734;-72
2023/03/25 09:28:43;;;;;;;;;3.00;0.00;;;;;15.16;48.55;100753.03;5053708;28;45458;-67
2023/03/25 09:31:08;;;;;;;;;0.00;0.00;;;;;15.54;47.89;100776.16;5056049;28;45576;-65
2023/03/25 09:33:35;;;;;;;;;3.00;2.00;;;;;15.63;47.06;100783.88;5037909;28;45433;-70
2023/03/25 09:36:02;;;;;;;;;5.00;2.33;;;;;15.59;47.31;100792.78;5054981;28;45452;-72
2023/03/25 09:38:29;;;;;;;;;0.33;0.00;;;;;15.35;46.25;100780.00;5040529;28;45573;-76
2023/03/25 09:40:55;;;;;;;;;1.00;1.00;;;;;15.07;46.57;100780.47;5055813;28;46601;-63
2023/03/25 09:43:57;;;;;;;;;1.00;0.00;;;;;14.95;46.96;100791.19;5055417;28;45301;-65
2023/03/25 09:46:23;;;;;;;;;2.67;0.67;;;;;14.83;47.08;100787.00;5055803;28;45308;-69
2023/03/25 09:48:50;;;;;;;;;0.33;0.33;;;;;14.77;47.42;100793.19;5053953;28;45605;-71
2023/03/25 09:51:36;;;;;;;;;2.00;0.00;;;;;14.59;47.25;100783.81;5055098;28;45525;-72
2023/03/25 09:54:26;;;;;;;;;1.00;1.00;;;;;14.68;51.74;100795.97;5058102;28;45680;-69
2023/03/25 09:56:56;;;;;;;;;1.00;1.00;;;;;14.77;52.10;100797.63;5063363;28;45502;-65
2023/03/25 09:59:31;;;;;;;;;2.00;0.00;;;;;14.83;51.84;100793.13;5058972;28;45330;-68
2023/03/25 10:02:00;;;;;;;;;2.33;1.00;;;;;14.92;52.36;100813.19;5047671;28;45974;-70
2023/03/25 10:04:44;;;;;;;;;0.00;0.00;;;;;15.07;51.68;100814.75;5056926;28;45472;-69
2023/03/25 10:07:51;;;;;;;;;0.00;0.00;;;;;15.34;50.89;100816.06;5055889;28;45498;-64
2023/03/25 10:10:42;;;;;;;;;2.33;0.00;;;;;15.38;47.69;100814.28;5054641;28;45894;-75
2023/03/25 10:13:24;;;;;;;;;1.00;1.00;;;;;15.33;48.11;100822.25;5058054;28;46238;-66
2023/03/25 10:16:05;;;;;;;;;0.00;0.00;;;;;15.22;48.09;100832.09;5058409;28;45381;-70
2023/03/25 10:18:54;;;;;;;;;0.67;0.67;;;;;15.35;47.96;100819.56;5053299;28;45485;-66
2023/03/25 10:21:19;;;;;;;;;1.67;1.00;;;;;15.74;47.83;100827.75;5036728;28;45399;-65
2023/03/25 10:24:20;;;;;;;;;2.00;0.00;;;;;15.98;46.89;100819.38;5046368;28;45624;-72
2023/03/25 10:26:55;;;;;;;;;3.33;0.00;;;;;16.21;46.27;100813.66;5052819;28;45469;-65
2023/03/25 10:29:30;;;;;;;;;2.67;2.00;;;;;16.25;45.98;100822.38;5058669;28;45333;-67
2023/03/25 10:32:05;;;;;;;;;1.33;1.00;;;;;16.18;46.02;100826.91;5045663;28;45600;-66
2023/03/25 10:34:45;;;;;;;;;1.00;0.67;;;;;16.39;45.92;100822.09;5054081;28;45555;-68
2023/03/25 10:37:16;;;;;;;;;3.67;0.00;;;;;16.59;45.21;100827.00;5053340;28;45546;-67
2023/03/25 10:39:46;;;;;;;;;1.67;0.00;;;;;16.70;44.93;100822.31;5036366;28;45392;-71
2023/03/25 10:42:20;;;;;;;;;2.00;1.00;;;;;16.77;44.61;100818.63;5036730;28;45540;-69
2023/03/25 10:44:47;;;;;;;;;0.67;0.67;;;;;16.63;44.81;100803.06;5052090;28;47087;-69
2023/03/25 10:47:18;;;;;;;;;1.33;1.00;;;;;16.60;45.16;100791.69;5054845;28;45455;-72
2023/03/25 10:49:47;;;;;;;;;2.00;1.33;;;;;16.71;44.70;100821.44;5056240;28;45581;-72
2023/03/25 10:52:13;;;;;;;;;3.67;0.67;;;;;16.80;45.07;100799.22;5054365;28;45422;-68
2023/03/25 10:54:43;;;;;;;;;2.33;0.67;;;;;16.72;44.33;100817.88;5055887;28;46397;-64
2023/03/25 10:57:19;;;;;;;;;2.00;0.00;;;;;16.65;44.55;100808.31;5058276;28;45443;-65
2023/03/25 10:59:55;;;;;;;;;2.00;0.00;;;;;16.51;44.93;100813.91;5050275;28;45481;-68
2023/03/25 11:02:26;;;;;;;;;2.33;1.00;;;;;16.26;45.57;100795.06;5051299;28;45515;-67
2023/03/25 11:04:59;;;;;;;;;1.00;0.00;;;;;16.47;45.43;100823.69;5053250;28;46678;-70
2023/03/25 11:07:30;;;;;;;;;3.33;1.00;;;;;16.72;44.99;100825.81;5052977;28;45470;-67
2023/03/25 11:10:17;;;;;;;;;2.67;0.00;;;;;16.66;44.13;100800.38;5053375;28;45692;-74
2023/03/25 11:12:47;;;;;;;;;3.00;2.00;;;;;16.78;46.27;100817.75;5053737;28;45450;-68
2023/03/25 11:15:24;;;;;;;;;2.00;0.00;;;;;16.71;46.11;100824.06;5052061;28;46473;-74
2023/03/25 11:18:08;;;;;;;;;1.00;0.00;;;;;16.57;46.17;100800.56;5053768;28;45480;-72
2023/03/25 11:20:46;;;;;;;;;1.67;0.00;;;;;16.67;45.98;100817.97;5036538;28;45466;-69
2023/03/25 11:23:29;;;;;;;;;1.00;0.00;;;;;16.75;46.27;100823.97;5050213;28;45542;-71
2023/03/25 11:26:11;;;;;;;;;2.00;2.00;;;;;16.94;45.60;100816.53;5054098;28;46398;-69
2023/03/25 11:28:42;;;;;;;;;3.00;1.00;;;;;17.37;44.22;100830.53;5040339;28;45479;-71
2023/03/25 11:31:17;;;;;;;;;0.00;0.00;;;;;17.54;44.55;100824.81;5052610;28;45483;-72
2023/03/25 11:33:45;;;;;;;;;2.00;1.00;;;;;17.57;44.05;100819.41;5035332;28;45628;-70
2023/03/25 11:36:22;;;;;;;;;3.00;2.00;;;;;17.55;43.03;100837.13;5034809;28;46721;-67
2023/03/25 11:38:55;;;;;;;;;1.00;1.00;;;;;17.69;43.93;100836.78;5053286;28;45436;-65
2023/03/25 11:41:21;;;;;;;;;2.00;0.00;;;;;17.55;43.92;100822.09;5053257;28;45484;-65
2023/03/25 11:43:48;;;;;;;;;0.33;0.33;;;;;17.53;43.92;100833.63;5053798;28;45425;-73